Friday, October 19, 2018, 7:11 AM EDT
Back to Local

KBUF, Greater Buffalo International Airport

Location: Buffalo, NY, United States Lat: 42.933
Local Time: 7:11 AM EDT (11:11 GMT) Lon: -78.733
Time Zone: US/Eastern Elev: 725 ft

Show me the last for .
Show Decoded

2018-10-19 06:54 METAR KBUF 191054Z 20012KT 10SM BKN022 07/03 A3018 RMK AO2 SLP226 T00670033 =
2018-10-19 05:54 METAR KBUF 190954Z 21013KT 10SM BKN022 07/03 A3020 RMK AO2 SLP231 T00720028 =
2018-10-19 04:54 METAR KBUF 190854Z 21011KT 10SM BKN020 07/03 A3020 RMK AO2 SLP233 T00670028
                 58006 =
2018-10-19 03:54 METAR KBUF 190754Z 20009KT 10SM BKN027 06/02 A3022 RMK AO2 SLP238 T00610017 =
2018-10-19 03:01 METAR KBUF 190701Z 21010KT 10SM OVC025 07/01 A3022 RMK AO2 T00670011 =
2018-10-19 02:54 METAR KBUF 190654Z 21012KT 10SM SCT028 07/01 A3022 RMK AO2 SLP240 T00670011 =
2018-10-19 01:54 METAR KBUF 190554Z 21011KT 10SM SCT028 06/01 A3022 RMK AO2 SLP240 T00610006
                 10083 20056 56016 =
2018-10-19 00:54 METAR KBUF 190454Z 21011G21KT 10SM BKN024 BKN029 06/01 A3023 RMK AO2 SLP241
                 T00610006 400830006 =
2018-10-19 00:09 METAR KBUF 190409Z 22012KT 10SM FEW022 BKN029 06/01 A3024 RMK AO2 T00610006 =
2018-10-18 23:54 METAR KBUF 190354Z 21012KT 10SM SCT024 BKN032 06/01 A3025 RMK AO2 SLP248
                 T00610006 =
2018-10-18 22:54 METAR KBUF 190254Z 21012KT 10SM BKN031 06/01 A3027 RMK AO2 SLP257 T00610011
                 56014 =
2018-10-18 22:40 METAR KBUF 190240Z 20012KT 10SM BKN031 06/02 A3027 RMK AO2 T00610017 =
2018-10-18 22:19 METAR KBUF 190219Z 20013G21KT 10SM BKN029 07/02 A3027 RMK AO2 T00670022 =
2018-10-18 21:54 METAR KBUF 190154Z 24016G23KT 10SM BKN030 08/02 A3028 RMK AO2 SLP258 T00780022 =
2018-10-18 20:54 METAR KBUF 190054Z 26013G22KT 10SM BKN031 07/01 A3030 RMK AO2 SLP267 T00720011 =
2018-10-18 19:54 METAR KBUF 182354Z 24016G22KT 10SM BKN033 07/01 A3031 RMK AO2 SLP271 T00720011
                 10072 20056 58014 =
2018-10-18 18:54 METAR KBUF 182254Z 26012KT 10SM BKN034 07/01 A3033 RMK AO2 SLP278 T00670006 =
2018-10-18 17:54 METAR KBUF 182154Z 25009KT 10SM BKN035 06/M01 A3034 RMK AO2 SLP282 T00611006 =
2018-10-18 16:54 METAR KBUF 182054Z 25013KT 10SM BKN039 06/M01 A3035 RMK AO2 SLP285 T00611006
                 58020 =
2018-10-18 15:54 METAR KBUF 181954Z 24012G21KT 10SM BKN041 07/M02 A3038 RMK AO2 SLP294 T00671017
                 =
2018-10-18 14:54 METAR KBUF 181854Z 24008G18KT 10SM BKN043 06/M03 A3040 RMK AO2 SLP301 T00611033
                 =
2018-10-18 13:54 METAR KBUF 181754Z 26010KT 10SM BKN043 07/M03 A3041 RMK AO2 SLP305 T00671028
                 10067 20011 58012 =
2018-10-18 12:54 METAR KBUF 181654Z 28008KT 10SM FEW025 BKN039 04/M03 A3044 RMK AO2 SLP316
                 T00441028 =
2018-10-18 11:54 METAR KBUF 181554Z 26009KT 10SM FEW025 BKN043 04/M03 A3045 RMK AO2 SLP318
                 T00441028 =
2018-10-18 10:54 METAR KBUF 181454Z 24006KT 10SM FEW022 BKN047 04/M01 A3045 RMK AO2 SLP317
                 T00391006 51010 =
2018-10-18 09:54 METAR KBUF 181354Z 31009KT 10SM SCT022 BKN050 03/M03 A3044 RMK AO2 SLP316
                 T00281028 =
2018-10-18 08:54 METAR KBUF 181254Z 31005KT 10SM FEW016 FEW031 FEW055 03/M02 A3043 RMK AO2 SLP312
                 T00281017 =
2018-10-18 07:54 METAR KBUF 181154Z 28005KT 10SM BKN033 BKN050 BKN150 01/M01 A3042 RMK AO2 SLP308
                 60003 70008 T00111011 10028 20006 51020 =

Support USWX by starting your Amazon purchase here.